sensor_id;sensor_type;location;lat;lon;timestamp;temperature;humidity
5280;DHT22;2663;53.588;10.010;2024-03-07T00:00:07;6.00;99.90
5280;DHT22;2663;53.588;10.010;2024-03-07T00:02:42;5.90;99.90
5280;DHT22;2663;53.588;10.010;2024-03-07T00:05:09;5.90;99.90
5280;DHT22;2663;53.588;10.010;2024-03-07T00:07:37;5.90;99.90
5280;DHT22;2663;53.588;10.010;2024-03-07T00:10:04;5.90;99.90
5280;DHT22;2663;53.588;10.010;2024-03-07T00:12:37;5.90;99.90
5280;DHT22;2663;53.588;10.010;2024-03-07T00:15:06;6.00;99.90
5280;DHT22;2663;53.588;10.010;2024-03-07T00:17:33;6.00;99.90
5280;DHT22;2663;53.588;10.010;2024-03-07T00:20:02;6.20;99.90
5280;DHT22;2663;53.588;10.010;2024-03-07T00:22:31;6.00;99.90
5280;DHT22;2663;53.588;10.010;2024-03-07T00:24:58;6.10;99.90
5280;DHT22;2663;53.588;10.010;2024-03-07T00:27:25;6.20;99.90
5280;DHT22;2663;53.588;10.010;2024-03-07T00:29:52;6.10;99.90
5280;DHT22;2663;53.588;10.010;2024-03-07T00:32:20;6.20;99.90
5280;DHT22;2663;53.588;10.010;2024-03-07T00:34:48;6.30;99.90
5280;DHT22;2663;53.588;10.010;2024-03-07T00:37:16;6.30;99.90
5280;DHT22;2663;53.588;10.010;2024-03-07T00:39:42;6.40;99.90
5280;DHT22;2663;53.588;10.010;2024-03-07T00:42:09;6.20;99.90
5280;DHT22;2663;53.588;10.010;2024-03-07T00:44:36;6.10;99.90
5280;DHT22;2663;53.588;10.010;2024-03-07T00:47:03;6.10;99.90
5280;DHT22;2663;53.588;10.010;2024-03-07T00:49:31;6.10;99.90
5280;DHT22;2663;53.588;10.010;2024-03-07T00:51:58;6.10;99.90
5280;DHT22;2663;53.588;10.010;2024-03-07T00:54:26;6.10;99.90
5280;DHT22;2663;53.588;10.010;2024-03-07T00:56:53;6.20;99.90
5280;DHT22;2663;53.588;10.010;2024-03-07T00:59:21;6.20;99.90
5280;DHT22;2663;53.588;10.010;2024-03-07T01:01:49;6.30;99.90
5280;DHT22;2663;53.588;10.010;2024-03-07T01:04:16;6.40;99.90
5280;DHT22;2663;53.588;10.010;2024-03-07T01:06:43;6.40;99.90
5280;DHT22;2663;53.588;10.010;2024-03-07T01:09:10;6.20;99.90
5280;DHT22;2663;53.588;10.010;2024-03-07T01:11:43;6.20;99.90
5280;DHT22;2663;53.588;10.010;2024-03-07T01:14:12;6.30;99.90
5280;DHT22;2663;53.588;10.010;2024-03-07T01:16:40;6.50;99.90
5280;DHT22;2663;53.588;10.010;2024-03-07T01:19:07;6.60;99.90
5280;DHT22;2663;53.588;10.010;2024-03-07T01:21:35;6.60;99.90
5280;DHT22;2663;53.588;10.010;2024-03-07T01:24:05;6.50;99.90
5280;DHT22;2663;53.588;10.010;2024-03-07T01:26:32;6.40;99.90
5280;DHT22;2663;53.588;10.010;2024-03-07T01:29:00;6.40;99.90
5280;DHT22;2663;53.588;10.010;2024-03-07T01:31:27;6.60;99.90
5280;DHT22;2663;53.588;10.010;2024-03-07T01:33:54;6.40;99.90
5280;DHT22;2663;53.588;10.010;2024-03-07T01:36:21;6.50;99.90
5280;DHT22;2663;53.588;10.010;2024-03-07T01:38:48;6.50;99.90
5280;DHT22;2663;53.588;10.010;2024-03-07T01:41:16;6.40;99.90
5280;DHT22;2663;53.588;10.010;2024-03-07T01:43:43;6.30;99.90
5280;DHT22;2663;53.588;10.010;2024-03-07T01:46:10;6.30;99.90
5280;DHT22;2663;53.588;10.010;2024-03-07T01:48:38;6.40;99.90
5280;DHT22;2663;53.588;10.010;2024-03-07T01:51:07;6.40;99.90
5280;DHT22;2663;53.588;10.010;2024-03-07T01:53:35;6.50;99.90
5280;DHT22;2663;53.588;10.010;2024-03-07T01:56:03;6.60;99.90
5280;DHT22;2663;53.588;10.010;2024-03-07T01:58:30;6.60;99.90
5280;DHT22;2663;53.588;10.010;2024-03-07T02:00:59;6.60;99.90
5280;DHT22;2663;53.588;10.010;2024-03-07T02:03:26;6.60;99.90
5280;DHT22;2663;53.588;10.010;2024-03-07T02:05:53;6.50;99.90
5280;DHT22;2663;53.588;10.010;2024-03-07T02:08:20;6.60;99.90
5280;DHT22;2663;53.588;10.010;2024-03-07T02:10:47;6.70;99.90
5280;DHT22;2663;53.588;10.010;2024-03-07T02:13:15;6.50;99.90
5280;DHT22;2663;53.588;10.010;2024-03-07T02:15:42;6.70;99.90
5280;DHT22;2663;53.588;10.010;2024-03-07T02:18:09;6.70;99.90
5280;DHT22;2663;53.588;10.010;2024-03-07T02:20:37;6.80;99.90
5280;DHT22;2663;53.588;10.010;2024-03-07T02:23:04;6.80;99.90
5280;DHT22;2663;53.588;10.010;2024-03-07T02:25:31;6.70;99.90
5280;DHT22;2663;53.588;10.010;2024-03-07T02:27:58;6.50;99.90
5280;DHT22;2663;53.588;10.010;2024-03-07T02:30:25;6.30;99.90
5280;DHT22;2663;53.588;10.010;2024-03-07T02:32:52;6.30;99.90
5280;DHT22;2663;53.588;10.010;2024-03-07T02:35:22;6.50;99.90
5280;DHT22;2663;53.588;10.010;2024-03-07T02:37:50;6.40;99.90
5280;DHT22;2663;53.588;10.010;2024-03-07T02:40:17;6.50;99.90
5280;DHT22;2663;53.588;10.010;2024-03-07T02:42:44;6.50;99.90
5280;DHT22;2663;53.588;10.010;2024-03-07T02:45:11;6.50;99.90
5280;DHT22;2663;53.588;10.010;2024-03-07T02:47:41;6.40;99.90
5280;DHT22;2663;53.588;10.010;2024-03-07T02:50:09;6.20;99.90
5280;DHT22;2663;53.588;10.010;2024-03-07T02:52:37;6.20;99.90
5280;DHT22;2663;53.588;10.010;2024-03-07T02:55:04;6.40;99.90
5280;DHT22;2663;53.588;10.010;2024-03-07T02:57:31;6.50;99.90
5280;DHT22;2663;53.588;10.010;2024-03-07T02:59:58;6.30;99.90
5280;DHT22;2663;53.588;10.010;2024-03-07T03:02:25;6.30;99.90
5280;DHT22;2663;53.588;10.010;2024-03-07T03:04:52;6.30;99.90
5280;DHT22;2663;53.588;10.010;2024-03-07T03:07:19;6.40;99.90
5280;DHT22;2663;53.588;10.010;2024-03-07T03:09:46;6.40;99.90
5280;DHT22;2663;53.588;10.010;2024-03-07T03:12:13;6.40;99.90
5280;DHT22;2663;53.588;10.010;2024-03-07T03:14:40;6.20;99.90
5280;DHT22;2663;53.588;10.010;2024-03-07T03:17:07;6.30;99.90
5280;DHT22;2663;53.588;10.010;2024-03-07T03:19:35;6.20;99.90
5280;DHT22;2663;53.588;10.010;2024-03-07T03:22:03;6.20;99.90
5280;DHT22;2663;53.588;10.010;2024-03-07T03:24:30;6.30;99.90
5280;DHT22;2663;53.588;10.010;2024-03-07T03:26:57;6.20;99.90
5280;DHT22;2663;53.588;10.010;2024-03-07T03:29:24;6.30;99.90
5280;DHT22;2663;53.588;10.010;2024-03-07T03:31:51;6.40;99.90
5280;DHT22;2663;53.588;10.010;2024-03-07T03:34:18;6.30;99.90
5280;DHT22;2663;53.588;10.010;2024-03-07T03:36:45;6.20;99.90
5280;DHT22;2663;53.588;10.010;2024-03-07T03:39:11;6.10;99.90
5280;DHT22;2663;53.588;10.010;2024-03-07T03:41:40;6.10;99.90
5280;DHT22;2663;53.588;10.010;2024-03-07T03:44:07;6.10;99.90
5280;DHT22;2663;53.588;10.010;2024-03-07T03:46:34;6.70;99.90
5280;DHT22;2663;53.588;10.010;2024-03-07T03:49:01;6.00;99.90
5280;DHT22;2663;53.588;10.010;2024-03-07T03:51:27;6.00;99.90
5280;DHT22;2663;53.588;10.010;2024-03-07T03:53:54;6.00;99.90
5280;DHT22;2663;53.588;10.010;2024-03-07T03:56:21;6.10;99.90
5280;DHT22;2663;53.588;10.010;2024-03-07T03:58:48;6.00;99.90
5280;DHT22;2663;53.588;10.010;2024-03-07T04:01:15;5.90;99.90
5280;DHT22;2663;53.588;10.010;2024-03-07T04:03:42;5.90;99.90
5280;DHT22;2663;53.588;10.010;2024-03-07T04:06:13;5.90;99.90
5280;DHT22;2663;53.588;10.010;2024-03-07T04:08:40;5.70;99.90
5280;DHT22;2663;53.588;10.010;2024-03-07T04:11:07;5.80;99.90
5280;DHT22;2663;53.588;10.010;2024-03-07T04:13:37;5.80;99.90
5280;DHT22;2663;53.588;10.010;2024-03-07T04:16:04;5.70;99.90
5280;DHT22;2663;53.588;10.010;2024-03-07T04:18:31;5.70;99.90
5280;DHT22;2663;53.588;10.010;2024-03-07T04:20:59;5.60;99.90
5280;DHT22;2663;53.588;10.010;2024-03-07T04:23:26;5.70;99.90
5280;DHT22;2663;53.588;10.010;2024-03-07T04:25:54;5.60;99.90
5280;DHT22;2663;53.588;10.010;2024-03-07T04:28:23;5.60;99.90
5280;DHT22;2663;53.588;10.010;2024-03-07T04:30:49;5.70;99.90
5280;DHT22;2663;53.588;10.010;2024-03-07T04:33:16;5.80;99.90
5280;DHT22;2663;53.588;10.010;2024-03-07T04:35:43;5.70;99.90
5280;DHT22;2663;53.588;10.010;2024-03-07T04:38:10;5.70;99.90
5280;DHT22;2663;53.588;10.010;2024-03-07T04:40:42;5.70;99.90
5280;DHT22;2663;53.588;10.010;2024-03-07T04:43:09;5.60;99.90
5280;DHT22;2663;53.588;10.010;2024-03-07T04:45:35;5.70;99.90
5280;DHT22;2663;53.588;10.010;2024-03-07T04:48:02;5.60;99.90
5280;DHT22;2663;53.588;10.010;2024-03-07T04:50:29;5.50;99.90
5280;DHT22;2663;53.588;10.010;2024-03-07T04:52:56;5.60;99.90
5280;DHT22;2663;53.588;10.010;2024-03-07T04:55:23;5.60;99.90
5280;DHT22;2663;53.588;10.010;2024-03-07T04:57:49;5.50;99.90
5280;DHT22;2663;53.588;10.010;2024-03-07T05:00:16;5.30;99.90
5280;DHT22;2663;53.588;10.010;2024-03-07T05:02:49;5.40;99.90
5280;DHT22;2663;53.588;10.010;2024-03-07T05:05:17;5.20;99.90
5280;DHT22;2663;53.588;10.010;2024-03-07T05:07:50;5.20;99.90
5280;DHT22;2663;53.588;10.010;2024-03-07T05:10:17;5.10;99.90
5280;DHT22;2663;53.588;10.010;2024-03-07T05:12:44;5.00;99.90
5280;DHT22;2663;53.588;10.010;2024-03-07T05:15:11;6.00;99.90
5280;DHT22;2663;53.588;10.010;2024-03-07T05:17:38;4.90;99.90
5280;DHT22;2663;53.588;10.010;2024-03-07T05:20:07;5.10;99.90
5280;DHT22;2663;53.588;10.010;2024-03-07T05:22:37;5.10;99.90
5280;DHT22;2663;53.588;10.010;2024-03-07T05:25:11;5.20;99.90
5280;DHT22;2663;53.588;10.010;2024-03-07T05:27:38;4.90;99.90
5280;DHT22;2663;53.588;10.010;2024-03-07T05:30:05;4.80;99.90
5280;DHT22;2663;53.588;10.010;2024-03-07T05:32:36;4.80;99.90
5280;DHT22;2663;53.588;10.010;2024-03-07T05:35:03;4.80;99.90
5280;DHT22;2663;53.588;10.010;2024-03-07T05:37:30;4.70;99.90
5280;DHT22;2663;53.588;10.010;2024-03-07T05:39:58;4.70;99.90
5280;DHT22;2663;53.588;10.010;2024-03-07T05:42:26;4.70;99.90
5280;DHT22;2663;53.588;10.010;2024-03-07T05:44:53;4.80;99.90
5280;DHT22;2663;53.588;10.010;2024-03-07T05:47:20;4.80;99.90
5280;DHT22;2663;53.588;10.010;2024-03-07T05:49:48;4.90;99.90
5280;DHT22;2663;53.588;10.010;2024-03-07T05:52:15;4.80;99.90
5280;DHT22;2663;53.588;10.010;2024-03-07T05:54:42;4.40;99.90
5280;DHT22;2663;53.588;10.010;2024-03-07T05:57:10;4.60;99.90
5280;DHT22;2663;53.588;10.010;2024-03-07T05:59:38;4.60;99.90
5280;DHT22;2663;53.588;10.010;2024-03-07T06:02:05;4.50;99.90
5280;DHT22;2663;53.588;10.010;2024-03-07T06:04:32;4.60;99.90
5280;DHT22;2663;53.588;10.010;2024-03-07T06:07:01;4.50;99.90
5280;DHT22;2663;53.588;10.010;2024-03-07T06:09:28;4.60;99.90
5280;DHT22;2663;53.588;10.010;2024-03-07T06:11:55;4.60;99.90
5280;DHT22;2663;53.588;10.010;2024-03-07T06:14:22;4.60;99.90
5280;DHT22;2663;53.588;10.010;2024-03-07T06:16:51;4.70;99.90
5280;DHT22;2663;53.588;10.010;2024-03-07T06:19:19;4.70;99.90
5280;DHT22;2663;53.588;10.010;2024-03-07T06:21:46;4.60;99.90
5280;DHT22;2663;53.588;10.010;2024-03-07T06:24:13;4.70;99.90
5280;DHT22;2663;53.588;10.010;2024-03-07T06:26:41;5.00;99.90
5280;DHT22;2663;53.588;10.010;2024-03-07T06:29:14;4.60;99.90
5280;DHT22;2663;53.588;10.010;2024-03-07T06:31:45;4.90;99.90
5280;DHT22;2663;53.588;10.010;2024-03-07T06:34:16;5.10;99.90
5280;DHT22;2663;53.588;10.010;2024-03-07T06:36:44;5.20;99.90
5280;DHT22;2663;53.588;10.010;2024-03-07T06:39:10;5.10;99.90
5280;DHT22;2663;53.588;10.010;2024-03-07T06:41:38;4.90;99.90
5280;DHT22;2663;53.588;10.010;2024-03-07T06:44:05;4.60;99.90
5280;DHT22;2663;53.588;10.010;2024-03-07T06:46:33;4.30;99.90
5280;DHT22;2663;53.588;10.010;2024-03-07T06:49:01;4.20;99.90
5280;DHT22;2663;53.588;10.010;2024-03-07T06:51:28;4.30;99.90
5280;DHT22;2663;53.588;10.010;2024-03-07T06:53:55;4.40;99.90
5280;DHT22;2663;53.588;10.010;2024-03-07T06:56:23;4.40;99.90
5280;DHT22;2663;53.588;10.010;2024-03-07T06:58:51;4.60;99.90
5280;DHT22;2663;53.588;10.010;2024-03-07T07:01:18;4.60;99.90
5280;DHT22;2663;53.588;10.010;2024-03-07T07:03:46;4.70;99.90
5280;DHT22;2663;53.588;10.010;2024-03-07T07:06:15;5.20;99.90
5280;DHT22;2663;53.588;10.010;2024-03-07T07:08:42;5.30;99.90
5280;DHT22;2663;53.588;10.010;2024-03-07T07:11:09;5.50;99.90
5280;DHT22;2663;53.588;10.010;2024-03-07T07:13:38;5.50;99.90
5280;DHT22;2663;53.588;10.010;2024-03-07T07:16:05;5.30;99.90
5280;DHT22;2663;53.588;10.010;2024-03-07T07:18:32;3.80;99.90
5280;DHT22;2663;53.588;10.010;2024-03-07T07:21:00;5.10;99.90
5280;DHT22;2663;53.588;10.010;2024-03-07T07:23:29;5.10;99.90
5280;DHT22;2663;53.588;10.010;2024-03-07T07:25:56;5.30;99.90
5280;DHT22;2663;53.588;10.010;2024-03-07T07:28:23;5.00;99.90
5280;DHT22;2663;53.588;10.010;2024-03-07T07:30:50;4.90;99.90
5280;DHT22;2663;53.588;10.010;2024-03-07T07:33:17;4.60;99.90
5280;DHT22;2663;53.588;10.010;2024-03-07T07:35:45;4.50;99.90
5280;DHT22;2663;53.588;10.010;2024-03-07T07:38:12;4.40;99.90
5280;DHT22;2663;53.588;10.010;2024-03-07T07:40:42;4.50;99.90
5280;DHT22;2663;53.588;10.010;2024-03-07T07:43:09;4.60;99.90
5280;DHT22;2663;53.588;10.010;2024-03-07T07:45:51;4.50;99.90
5280;DHT22;2663;53.588;10.010;2024-03-07T07:48:18;4.60;99.90
5280;DHT22;2663;53.588;10.010;2024-03-07T07:50:46;4.60;99.90
5280;DHT22;2663;53.588;10.010;2024-03-07T07:53:15;4.70;99.90
5280;DHT22;2663;53.588;10.010;2024-03-07T07:55:42;4.70;99.90
5280;DHT22;2663;53.588;10.010;2024-03-07T07:58:08;4.60;99.90
5280;DHT22;2663;53.588;10.010;2024-03-07T08:00:35;4.70;99.90
5280;DHT22;2663;53.588;10.010;2024-03-07T08:03:06;4.80;99.90
5280;DHT22;2663;53.588;10.010;2024-03-07T08:05:34;4.80;99.90
5280;DHT22;2663;53.588;10.010;2024-03-07T08:08:04;4.90;99.90
5280;DHT22;2663;53.588;10.010;2024-03-07T08:10:34;5.10;99.90
5280;DHT22;2663;53.588;10.010;2024-03-07T08:13:03;5.10;99.90
5280;DHT22;2663;53.588;10.010;2024-03-07T08:15:31;4.70;99.90
5280;DHT22;2663;53.588;10.010;2024-03-07T08:17:58;4.70;99.90
5280;DHT22;2663;53.588;10.010;2024-03-07T08:20:27;4.90;99.90
5280;DHT22;2663;53.588;10.010;2024-03-07T08:22:55;4.80;99.90
5280;DHT22;2663;53.588;10.010;2024-03-07T08:25:24;4.70;99.90
5280;DHT22;2663;53.588;10.010;2024-03-07T08:27:53;4.80;99.90
5280;DHT22;2663;53.588;10.010;2024-03-07T08:30:21;4.90;99.90
5280;DHT22;2663;53.588;10.010;2024-03-07T08:32:52;6.40;99.90
5280;DHT22;2663;53.588;10.010;2024-03-07T08:35:20;5.00;99.90
5280;DHT22;2663;53.588;10.010;2024-03-07T08:37:48;5.20;99.90
5280;DHT22;2663;53.588;10.010;2024-03-07T08:40:24;5.40;99.90
5280;DHT22;2663;53.588;10.010;2024-03-07T08:42:55;5.30;99.90
5280;DHT22;2663;53.588;10.010;2024-03-07T08:45:27;4.80;99.90
5280;DHT22;2663;53.588;10.010;2024-03-07T08:47:55;4.80;99.90
5280;DHT22;2663;53.588;10.010;2024-03-07T08:50:24;4.90;99.90
5280;DHT22;2663;53.588;10.010;2024-03-07T08:52:53;4.70;99.90
5280;DHT22;2663;53.588;10.010;2024-03-07T08:55:21;4.90;99.90
5280;DHT22;2663;53.588;10.010;2024-03-07T08:57:48;4.90;99.90
5280;DHT22;2663;53.588;10.010;2024-03-07T09:00:17;4.80;99.90
5280;DHT22;2663;53.588;10.010;2024-03-07T09:02:56;4.80;99.90
5280;DHT22;2663;53.588;10.010;2024-03-07T09:05:29;5.10;99.90
5280;DHT22;2663;53.588;10.010;2024-03-07T09:07:58;5.20;99.90
5280;DHT22;2663;53.588;10.010;2024-03-07T09:10:25;5.30;99.90
5280;DHT22;2663;53.588;10.010;2024-03-07T09:12:53;5.40;99.90
5280;DHT22;2663;53.588;10.010;2024-03-07T09:15:21;5.90;99.90
5280;DHT22;2663;53.588;10.010;2024-03-07T09:17:50;5.40;99.90
5280;DHT22;2663;53.588;10.010;2024-03-07T09:20:17;5.50;99.90
5280;DHT22;2663;53.588;10.010;2024-03-07T09:22:46;5.50;99.90
5280;DHT22;2663;53.588;10.010;2024-03-07T09:25:17;5.50;99.90
5280;DHT22;2663;53.588;10.010;2024-03-07T09:27:46;5.50;99.90
5280;DHT22;2663;53.588;10.010;2024-03-07T09:30:13;5.60;99.90
5280;DHT22;2663;53.588;10.010;2024-03-07T09:32:48;5.70;99.90
5280;DHT22;2663;53.588;10.010;2024-03-07T09:35:15;5.60;99.90
5280;DHT22;2663;53.588;10.010;2024-03-07T09:37:44;5.60;99.90
5280;DHT22;2663;53.588;10.010;2024-03-07T09:40:11;5.70;99.90
5280;DHT22;2663;53.588;10.010;2024-03-07T09:42:46;5.70;99.90
5280;DHT22;2663;53.588;10.010;2024-03-07T09:45:17;5.50;99.90
5280;DHT22;2663;53.588;10.010;2024-03-07T09:47:47;5.50;99.90
5280;DHT22;2663;53.588;10.010;2024-03-07T09:50:20;5.50;99.90
5280;DHT22;2663;53.588;10.010;2024-03-07T09:52:52;5.60;99.90
5280;DHT22;2663;53.588;10.010;2024-03-07T09:55:21;5.70;99.90
5280;DHT22;2663;53.588;10.010;2024-03-07T09:57:53;5.50;99.90
5280;DHT22;2663;53.588;10.010;2024-03-07T10:00:20;5.60;99.90
5280;DHT22;2663;53.588;10.010;2024-03-07T10:02:57;5.70;99.90
5280;DHT22;2663;53.588;10.010;2024-03-07T10:05:27;5.70;99.90
5280;DHT22;2663;53.588;10.010;2024-03-07T10:07:54;5.60;99.90
5280;DHT22;2663;53.588;10.010;2024-03-07T10:10:22;5.50;99.90
5280;DHT22;2663;53.588;10.010;2024-03-07T10:12:49;5.60;99.90
5280;DHT22;2663;53.588;10.010;2024-03-07T10:15:16;5.70;99.90
5280;DHT22;2663;53.588;10.010;2024-03-07T10:17:44;5.70;99.90
5280;DHT22;2663;53.588;10.010;2024-03-07T10:20:14;5.70;99.90
5280;DHT22;2663;53.588;10.010;2024-03-07T10:22:45;5.70;99.90
5280;DHT22;2663;53.588;10.010;2024-03-07T10:25:11;5.60;99.90
5280;DHT22;2663;53.588;10.010;2024-03-07T10:27:38;5.70;99.90
5280;DHT22;2663;53.588;10.010;2024-03-07T10:30:05;5.80;99.90
5280;DHT22;2663;53.588;10.010;2024-03-07T10:32:35;5.80;99.90
5280;DHT22;2663;53.588;10.010;2024-03-07T10:35:03;5.80;99.90
5280;DHT22;2663;53.588;10.010;2024-03-07T10:37:30;5.80;99.90
5280;DHT22;2663;53.588;10.010;2024-03-07T10:39:57;5.90;99.90
5280;DHT22;2663;53.588;10.010;2024-03-07T10:42:28;6.00;99.90
5280;DHT22;2663;53.588;10.010;2024-03-07T10:45:00;6.00;99.90
5280;DHT22;2663;53.588;10.010;2024-03-07T10:47:29;6.20;99.90
5280;DHT22;2663;53.588;10.010;2024-03-07T10:50:21;6.30;99.90
5280;DHT22;2663;53.588;10.010;2024-03-07T10:58:58;6.70;99.90
5280;DHT22;2663;53.588;10.010;2024-03-07T11:01:32;6.80;99.90
5280;DHT22;2663;53.588;10.010;2024-03-07T11:04:00;6.90;99.90
5280;DHT22;2663;53.588;10.010;2024-03-07T11:06:32;6.90;99.90
5280;DHT22;2663;53.588;10.010;2024-03-07T11:09:04;6.90;99.90
5280;DHT22;2663;53.588;10.010;2024-03-07T11:11:40;7.00;99.90
5280;DHT22;2663;53.588;10.010;2024-03-07T11:14:09;7.30;99.90
5280;DHT22;2663;53.588;10.010;2024-03-07T11:16:39;7.10;99.90
5280;DHT22;2663;53.588;10.010;2024-03-07T11:19:31;6.90;99.90
5280;DHT22;2663;53.588;10.010;2024-03-07T11:22:03;6.90;99.90
5280;DHT22;2663;53.588;10.010;2024-03-07T11:24:41;6.90;99.90
5280;DHT22;2663;53.588;10.010;2024-03-07T11:27:10;7.00;99.90
5280;DHT22;2663;53.588;10.010;2024-03-07T11:29:50;7.00;99.90
5280;DHT22;2663;53.588;10.010;2024-03-07T11:32:21;7.00;99.90
5280;DHT22;2663;53.588;10.010;2024-03-07T11:34:50;8.50;99.90
5280;DHT22;2663;53.588;10.010;2024-03-07T11:37:37;7.00;99.90
5280;DHT22;2663;53.588;10.010;2024-03-07T11:40:07;6.90;99.90
5280;DHT22;2663;53.588;10.010;2024-03-07T11:42:34;8.00;99.90
5280;DHT22;2663;53.588;10.010;2024-03-07T11:45:03;7.00;99.90
5280;DHT22;2663;53.588;10.010;2024-03-07T11:47:39;6.90;99.90
5280;DHT22;2663;53.588;10.010;2024-03-07T11:50:07;7.00;99.90
5280;DHT22;2663;53.588;10.010;2024-03-07T11:52:38;7.10;99.90
5280;DHT22;2663;53.588;10.010;2024-03-07T11:55:08;7.30;99.90
5280;DHT22;2663;53.588;10.010;2024-03-07T11:57:35;7.40;99.90
5280;DHT22;2663;53.588;10.010;2024-03-07T12:00:03;7.50;99.90
5280;DHT22;2663;53.588;10.010;2024-03-07T12:02:39;7.50;99.90
5280;DHT22;2663;53.588;10.010;2024-03-07T12:05:07;7.30;99.90
5280;DHT22;2663;53.588;10.010;2024-03-07T12:07:34;7.20;99.90
5280;DHT22;2663;53.588;10.010;2024-03-07T12:10:02;7.20;99.90
5280;DHT22;2663;53.588;10.010;2024-03-07T12:12:32;7.20;99.90
5280;DHT22;2663;53.588;10.010;2024-03-07T12:15:00;7.30;99.90
5280;DHT22;2663;53.588;10.010;2024-03-07T12:17:29;7.60;99.90
5280;DHT22;2663;53.588;10.010;2024-03-07T12:19:58;7.60;99.90
5280;DHT22;2663;53.588;10.010;2024-03-07T12:22:29;7.50;99.90
5280;DHT22;2663;53.588;10.010;2024-03-07T12:25:01;7.50;99.90
5280;DHT22;2663;53.588;10.010;2024-03-07T12:27:29;7.40;99.90
5280;DHT22;2663;53.588;10.010;2024-03-07T12:29:56;7.40;99.90
5280;DHT22;2663;53.588;10.010;2024-03-07T12:32:23;7.50;99.90
5280;DHT22;2663;53.588;10.010;2024-03-07T12:34:52;7.70;99.90
5280;DHT22;2663;53.588;10.010;2024-03-07T12:37:19;7.50;99.90
5280;DHT22;2663;53.588;10.010;2024-03-07T12:39:53;7.60;99.90
5280;DHT22;2663;53.588;10.010;2024-03-07T12:42:28;7.80;99.90
5280;DHT22;2663;53.588;10.010;2024-03-07T12:44:57;7.70;99.90
5280;DHT22;2663;53.588;10.010;2024-03-07T12:47:26;7.80;99.90
5280;DHT22;2663;53.588;10.010;2024-03-07T12:49:53;7.90;99.90
5280;DHT22;2663;53.588;10.010;2024-03-07T12:52:20;7.90;99.90
5280;DHT22;2663;53.588;10.010;2024-03-07T12:54:46;7.90;99.90
5280;DHT22;2663;53.588;10.010;2024-03-07T12:57:14;8.00;99.90
5280;DHT22;2663;53.588;10.010;2024-03-07T12:59:41;8.00;99.90
5280;DHT22;2663;53.588;10.010;2024-03-07T13:02:10;7.90;99.90
5280;DHT22;2663;53.588;10.010;2024-03-07T13:04:37;8.00;99.90
5280;DHT22;2663;53.588;10.010;2024-03-07T13:07:08;8.10;99.90
5280;DHT22;2663;53.588;10.010;2024-03-07T13:09:35;8.20;99.90
5280;DHT22;2663;53.588;10.010;2024-03-07T13:12:02;8.10;99.90
5280;DHT22;2663;53.588;10.010;2024-03-07T13:14:30;7.90;99.90
5280;DHT22;2663;53.588;10.010;2024-03-07T13:17:00;7.90;99.90
5280;DHT22;2663;53.588;10.010;2024-03-07T13:19:32;8.00;99.90
5280;DHT22;2663;53.588;10.010;2024-03-07T13:21:59;8.00;99.90
5280;DHT22;2663;53.588;10.010;2024-03-07T13:24:27;8.10;99.90
5280;DHT22;2663;53.588;10.010;2024-03-07T13:26:54;8.20;99.90
5280;DHT22;2663;53.588;10.010;2024-03-07T13:29:21;8.20;99.90
5280;DHT22;2663;53.588;10.010;2024-03-07T13:31:52;8.30;99.90
5280;DHT22;2663;53.588;10.010;2024-03-07T13:34:19;8.40;99.90
5280;DHT22;2663;53.588;10.010;2024-03-07T13:36:45;8.50;99.90
5280;DHT22;2663;53.588;10.010;2024-03-07T13:39:13;8.50;99.90
5280;DHT22;2663;53.588;10.010;2024-03-07T13:41:41;8.50;99.90
5280;DHT22;2663;53.588;10.010;2024-03-07T13:44:09;8.50;99.90
5280;DHT22;2663;53.588;10.010;2024-03-07T13:46:36;8.60;99.90
5280;DHT22;2663;53.588;10.010;2024-03-07T13:49:04;8.60;99.90
5280;DHT22;2663;53.588;10.010;2024-03-07T13:51:40;8.60;99.90
5280;DHT22;2663;53.588;10.010;2024-03-07T13:54:17;8.70;99.90
5280;DHT22;2663;53.588;10.010;2024-03-07T14:05:54;8.70;99.90
5280;DHT22;2663;53.588;10.010;2024-03-07T14:11:36;8.80;99.90
5280;DHT22;2663;53.588;10.010;2024-03-07T14:17:44;9.00;99.90
5280;DHT22;2663;53.588;10.010;2024-03-07T14:28:58;9.40;99.90
5280;DHT22;2663;53.588;10.010;2024-03-07T14:31:27;9.40;99.90
5280;DHT22;2663;53.588;10.010;2024-03-07T14:36:53;9.60;99.90
5280;DHT22;2663;53.588;10.010;2024-03-07T14:39:23;9.70;99.90
5280;DHT22;2663;53.588;10.010;2024-03-07T14:41:52;10.90;99.90
5280;DHT22;2663;53.588;10.010;2024-03-07T14:44:21;14.50;99.90
5280;DHT22;2663;53.588;10.010;2024-03-07T14:47:05;15.30;99.20
5280;DHT22;2663;53.588;10.010;2024-03-07T14:49:34;16.10;95.50
5280;DHT22;2663;53.588;10.010;2024-03-07T14:52:01;14.80;96.40
5280;DHT22;2663;53.588;10.010;2024-03-07T14:54:30;13.20;97.50
5280;DHT22;2663;53.588;10.010;2024-03-07T14:56:57;11.90;99.90
5280;DHT22;2663;53.588;10.010;2024-03-07T14:59:24;11.10;99.90
5280;DHT22;2663;53.588;10.010;2024-03-07T15:01:51;10.70;99.90
5280;DHT22;2663;53.588;10.010;2024-03-07T15:04:18;10.30;99.90
5280;DHT22;2663;53.588;10.010;2024-03-07T15:06:45;10.10;99.90
5280;DHT22;2663;53.588;10.010;2024-03-07T15:09:12;10.10;99.90
5280;DHT22;2663;53.588;10.010;2024-03-07T15:11:40;9.90;99.90
5280;DHT22;2663;53.588;10.010;2024-03-07T15:14:08;9.50;99.90
5280;DHT22;2663;53.588;10.010;2024-03-07T15:16:39;9.70;99.90
5280;DHT22;2663;53.588;10.010;2024-03-07T15:19:07;9.70;99.90
5280;DHT22;2663;53.588;10.010;2024-03-07T15:21:38;9.70;99.90
5280;DHT22;2663;53.588;10.010;2024-03-07T15:24:05;9.80;99.90
5280;DHT22;2663;53.588;10.010;2024-03-07T15:26:32;9.10;99.90
5280;DHT22;2663;53.588;10.010;2024-03-07T15:29:00;9.80;99.90
5280;DHT22;2663;53.588;10.010;2024-03-07T15:31:27;9.60;99.90
5280;DHT22;2663;53.588;10.010;2024-03-07T15:33:55;9.20;99.90
5280;DHT22;2663;53.588;10.010;2024-03-07T15:36:22;8.90;99.90
5280;DHT22;2663;53.588;10.010;2024-03-07T15:38:49;9.80;99.90
5280;DHT22;2663;53.588;10.010;2024-03-07T15:41:17;8.80;99.90
5280;DHT22;2663;53.588;10.010;2024-03-07T15:43:44;8.70;99.90
5280;DHT22;2663;53.588;10.010;2024-03-07T15:46:12;8.80;99.90
5280;DHT22;2663;53.588;10.010;2024-03-07T15:48:40;8.80;99.90
5280;DHT22;2663;53.588;10.010;2024-03-07T15:51:08;8.90;99.90
5280;DHT22;2663;53.588;10.010;2024-03-07T15:53:38;8.90;99.90
5280;DHT22;2663;53.588;10.010;2024-03-07T15:56:07;9.00;99.90
5280;DHT22;2663;53.588;10.010;2024-03-07T15:58:34;9.00;99.90
5280;DHT22;2663;53.588;10.010;2024-03-07T16:01:02;9.00;99.90
5280;DHT22;2663;53.588;10.010;2024-03-07T16:03:28;8.90;99.90
5280;DHT22;2663;53.588;10.010;2024-03-07T16:05:55;8.90;99.90
5280;DHT22;2663;53.588;10.010;2024-03-07T16:08:23;8.90;99.90
5280;DHT22;2663;53.588;10.010;2024-03-07T16:10:51;8.80;99.90
5280;DHT22;2663;53.588;10.010;2024-03-07T16:13:19;8.60;99.90
5280;DHT22;2663;53.588;10.010;2024-03-07T16:15:46;8.60;99.90
5280;DHT22;2663;53.588;10.010;2024-03-07T16:18:14;8.60;99.90
5280;DHT22;2663;53.588;10.010;2024-03-07T16:20:42;8.70;99.90
5280;DHT22;2663;53.588;10.010;2024-03-07T16:23:14;8.80;99.90
5280;DHT22;2663;53.588;10.010;2024-03-07T16:25:42;8.70;99.90
5280;DHT22;2663;53.588;10.010;2024-03-07T16:28:09;8.80;99.90
5280;DHT22;2663;53.588;10.010;2024-03-07T16:30:39;8.80;99.90
5280;DHT22;2663;53.588;10.010;2024-03-07T16:33:11;8.80;99.90
5280;DHT22;2663;53.588;10.010;2024-03-07T16:35:38;8.50;99.90
5280;DHT22;2663;53.588;10.010;2024-03-07T16:38:05;8.60;99.90
5280;DHT22;2663;53.588;10.010;2024-03-07T16:40:35;8.50;99.90
5280;DHT22;2663;53.588;10.010;2024-03-07T16:43:08;8.50;99.90